createdAt,value
2019-02-20T00:00:31.548Z,5.60
2019-02-20T00:03:01.049Z,5.50
2019-02-20T00:05:30.163Z,5.60
2019-02-20T00:07:59.298Z,5.60
2019-02-20T00:10:28.518Z,5.60
2019-02-20T00:12:58.567Z,5.70
2019-02-20T00:15:29.763Z,5.60
2019-02-20T00:17:58.866Z,5.60
2019-02-20T00:20:27.965Z,5.60
2019-02-20T00:22:57.444Z,5.60
2019-02-20T00:25:26.706Z,5.50
2019-02-20T00:27:56.340Z,5.50
2019-02-20T00:30:25.548Z,5.50
2019-02-20T00:32:54.624Z,5.40
2019-02-20T00:35:23.983Z,5.40
2019-02-20T00:37:54.545Z,5.40
2019-02-20T00:40:24.445Z,5.40
2019-02-20T00:42:53.498Z,5.40
2019-02-20T00:45:44.473Z,5.40
2019-02-20T00:48:32.629Z,5.40
2019-02-20T00:51:39.250Z,5.50
2019-02-20T00:54:09.350Z,5.40
2019-02-20T00:56:38.633Z,5.50
2019-02-20T00:59:07.762Z,5.50
2019-02-20T01:01:38.200Z,5.40
2019-02-20T01:04:07.484Z,5.50
2019-02-20T01:06:38.697Z,5.40
2019-02-20T01:09:08.302Z,5.50
2019-02-20T01:11:37.431Z,5.40
2019-02-20T01:14:06.668Z,5.40
2019-02-20T01:16:36.046Z,5.50
2019-02-20T01:19:05.158Z,5.50
2019-02-20T01:21:34.298Z,5.40
2019-02-20T01:24:03.492Z,5.40
2019-02-20T01:26:32.825Z,5.50
2019-02-20T01:29:04.318Z,5.50
2019-02-20T01:31:35.734Z,5.40
2019-02-20T01:34:05.381Z,5.50
2019-02-20T01:36:34.739Z,5.40
2019-02-20T01:39:06.125Z,5.40
2019-02-20T01:41:35.263Z,5.40
2019-02-20T01:44:04.356Z,5.40
2019-02-20T01:46:33.659Z,5.30
2019-02-20T01:49:02.801Z,5.30
2019-02-20T01:51:34.222Z,5.30
2019-02-20T01:54:03.431Z,5.30
2019-02-20T01:56:32.654Z,5.20
2019-02-20T01:59:01.770Z,5.20
2019-02-20T02:01:30.858Z,5.10
2019-02-20T02:03:59.990Z,5.10
2019-02-20T02:06:29.088Z,5.10
2019-02-20T02:08:59.654Z,5.10
2019-02-20T02:11:29.014Z,5.00
2019-02-20T02:13:58.147Z,5.00
2019-02-20T02:16:27.294Z,4.90
2019-02-20T02:18:56.276Z,4.90
2019-02-20T02:21:25.299Z,4.90
2019-02-20T02:23:54.398Z,4.80
2019-02-20T02:26:24.695Z,4.80
2019-02-20T02:28:54.163Z,4.70
2019-02-20T02:31:24.662Z,4.70
2019-02-20T02:33:53.811Z,4.70
2019-02-20T02:36:22.983Z,4.60
2019-02-20T02:38:53.558Z,4.60
2019-02-20T02:41:22.793Z,4.60
2019-02-20T02:43:51.901Z,4.60
2019-02-20T02:46:21.497Z,4.50
2019-02-20T02:48:50.651Z,4.50
2019-02-20T02:51:19.751Z,4.50
2019-02-20T02:53:48.919Z,4.50
2019-02-20T02:56:17.992Z,4.50
2019-02-20T02:58:47.119Z,4.50
2019-02-20T03:01:16.141Z,4.40
2019-02-20T03:03:46.542Z,4.30
2019-02-20T03:06:15.667Z,4.30
2019-02-20T03:08:44.785Z,4.30
2019-02-20T03:11:13.901Z,4.30
2019-02-20T03:13:43.009Z,4.30
2019-02-20T03:16:12.075Z,4.30
2019-02-20T03:18:41.500Z,4.30
2019-02-20T03:21:10.830Z,4.30
2019-02-20T03:23:40.560Z,4.30
2019-02-20T03:26:09.863Z,4.30
2019-02-20T03:28:40.218Z,4.30
2019-02-20T03:31:09.630Z,4.30
2019-02-20T03:33:38.604Z,4.30
2019-02-20T03:36:07.668Z,4.30
2019-02-20T03:38:37.960Z,4.30
2019-02-20T03:41:07.437Z,4.30
2019-02-20T03:43:38.174Z,4.30
2019-02-20T03:46:09.358Z,4.30
2019-02-20T03:48:38.465Z,4.30
2019-02-20T03:51:09.326Z,4.30
2019-02-20T03:53:38.479Z,4.30
2019-02-20T03:56:07.639Z,4.20
2019-02-20T03:58:36.779Z,4.20
2019-02-20T04:01:06.101Z,4.10
2019-02-20T04:03:35.323Z,4.10
2019-02-20T04:06:04.427Z,4.10
2019-02-20T04:08:33.553Z,4.00
2019-02-20T04:11:02.657Z,4.00
2019-02-20T04:13:31.813Z,4.00
2019-02-20T04:16:00.950Z,3.90
2019-02-20T04:18:32.247Z,3.90
2019-02-20T04:21:01.370Z,3.90
2019-02-20T04:23:32.573Z,4.00
2019-02-20T04:26:01.910Z,3.90
2019-02-20T04:28:31.010Z,3.80
2019-02-20T04:31:01.351Z,3.90
2019-02-20T04:33:30.791Z,3.90
2019-02-20T04:35:59.991Z,3.90
2019-02-20T04:38:29.536Z,3.90
2019-02-20T04:40:58.638Z,4.00
2019-02-20T04:43:27.796Z,4.10
2019-02-20T04:45:56.938Z,4.20
2019-02-20T04:48:25.937Z,4.20
2019-02-20T04:50:54.995Z,4.20
2019-02-20T04:53:24.477Z,4.30
2019-02-20T04:55:53.495Z,4.30
2019-02-20T04:58:23.321Z,4.40
2019-02-20T05:00:52.490Z,4.40
2019-02-20T05:03:29.376Z,4.40
2019-02-20T05:05:58.572Z,4.50
2019-02-20T05:08:27.661Z,4.60
2019-02-20T05:10:56.739Z,4.60
2019-02-20T05:13:27.488Z,4.60
2019-02-20T05:15:56.691Z,4.60
2019-02-20T05:18:25.819Z,4.70
2019-02-20T05:20:54.976Z,4.80
2019-02-20T05:23:23.993Z,4.90
2019-02-20T05:25:53.136Z,4.90
2019-02-20T05:28:22.345Z,4.70
2019-02-20T05:30:51.543Z,4.70
2019-02-20T05:33:21.023Z,4.70
2019-02-20T05:35:50.903Z,4.70
2019-02-20T05:38:30.019Z,4.90
2019-02-20T05:41:00.261Z,4.90
2019-02-20T05:43:29.541Z,5.00
2019-02-20T05:46:00.319Z,4.90
2019-02-20T05:48:29.743Z,5.00
2019-02-20T05:51:00.053Z,5.00
2019-02-20T05:53:29.163Z,4.90
2019-02-20T05:55:58.225Z,5.00
2019-02-20T05:58:27.338Z,5.00
2019-02-20T06:00:56.490Z,5.00
2019-02-20T06:03:27.129Z,5.00
2019-02-20T06:05:56.697Z,4.90
2019-02-20T06:08:25.706Z,4.90
2019-02-20T06:10:54.913Z,4.90
2019-02-20T06:13:24.002Z,4.80
2019-02-20T06:15:53.119Z,4.90
2019-02-20T06:18:22.246Z,4.90
2019-02-20T06:20:51.441Z,4.90
2019-02-20T06:23:21.504Z,4.90
2019-02-20T06:25:50.630Z,5.00
2019-02-20T06:28:19.776Z,5.00
2019-02-20T06:30:49.235Z,5.00
2019-02-20T06:33:18.334Z,5.00
2019-02-20T06:35:47.527Z,5.10
2019-02-20T06:38:16.743Z,5.00
2019-02-20T06:40:45.912Z,5.00
2019-02-20T06:43:16.257Z,5.00
2019-02-20T06:45:45.532Z,4.90
2019-02-20T06:48:16.857Z,4.90
2019-02-20T06:50:46.083Z,4.90
2019-02-20T06:53:16.486Z,4.90
2019-02-20T06:55:45.979Z,4.90
2019-02-20T06:58:15.479Z,4.90
2019-02-20T07:00:44.565Z,5.10
2019-02-20T07:03:24.405Z,5.10
2019-02-20T07:06:11.222Z,5.10
2019-02-20T07:09:29.887Z,5.20
2019-02-20T07:12:20.407Z,5.20
2019-02-20T07:15:33.657Z,5.20
2019-02-20T07:18:24.866Z,5.20
2019-02-20T07:21:33.948Z,5.20
2019-02-20T07:24:19.875Z,5.30
2019-02-20T07:27:07.448Z,5.20
2019-02-20T07:29:44.915Z,5.20
2019-02-20T07:32:17.968Z,5.20
2019-02-20T07:34:47.134Z,5.30
2019-02-20T07:37:16.281Z,5.30
2019-02-20T07:39:45.522Z,5.30
2019-02-20T07:42:14.724Z,5.50
2019-02-20T07:44:45.121Z,5.50
2019-02-20T07:47:14.274Z,5.60
2019-02-20T07:49:43.447Z,5.60
2019-02-20T07:52:12.547Z,5.70
2019-02-20T07:54:41.773Z,5.70
2019-02-20T07:57:10.919Z,5.80
2019-02-20T07:59:40.048Z,5.80
2019-02-20T08:02:09.321Z,5.80
2019-02-20T08:04:38.475Z,5.90
2019-02-20T08:07:08.805Z,5.90
2019-02-20T08:09:37.933Z,6.00
2019-02-20T08:12:08.769Z,6.00
2019-02-20T08:14:37.859Z,6.10
2019-02-20T08:17:06.978Z,6.10
2019-02-20T08:19:36.074Z,6.20
2019-02-20T08:22:08.290Z,6.30
2019-02-20T08:24:37.454Z,6.40
2019-02-20T08:27:06.563Z,6.40
2019-02-20T08:29:35.942Z,6.40
2019-02-20T08:32:05.106Z,6.30
2019-02-20T08:34:34.310Z,6.40
2019-02-20T08:37:03.480Z,6.40
2019-02-20T08:39:32.628Z,6.50
2019-02-20T08:42:01.726Z,6.50
2019-02-20T08:44:30.968Z,6.60
2019-02-20T08:47:00.087Z,6.60
2019-02-20T08:49:29.158Z,6.60
2019-02-20T08:51:58.278Z,6.70
2019-02-20T08:54:27.502Z,6.80
2019-02-20T08:56:56.623Z,6.90
2019-02-20T08:59:25.741Z,7.10
2019-02-20T09:01:55.003Z,7.20
2019-02-20T09:04:24.112Z,7.30
2019-02-20T09:06:53.548Z,7.40
2019-02-20T09:09:22.681Z,7.40
2019-02-20T09:11:52.349Z,7.40
2019-02-20T09:14:21.537Z,7.40
2019-02-20T09:16:50.723Z,7.40
2019-02-20T09:19:19.770Z,7.40
2019-02-20T09:21:48.886Z,7.70
2019-02-20T09:24:18.311Z,7.90
2019-02-20T09:26:50.227Z,8.00
2019-02-20T09:29:19.374Z,8.00
2019-02-20T09:31:48.533Z,8.00
2019-02-20T09:34:18.184Z,8.00
2019-02-20T09:36:47.811Z,8.20
2019-02-20T09:39:45.145Z,8.20
2019-02-20T09:42:17.464Z,8.20
2019-02-20T09:44:47.956Z,8.10
2019-02-20T09:47:17.826Z,8.20
2019-02-20T09:49:47.267Z,8.50
2019-02-20T09:52:16.682Z,8.70
2019-02-20T09:54:45.952Z,8.90
2019-02-20T09:57:17.598Z,9.00
2019-02-20T09:59:46.791Z,9.20
2019-02-20T10:02:15.910Z,9.50
2019-02-20T10:04:45.153Z,9.30
2019-02-20T10:07:14.459Z,9.40
2019-02-20T10:09:43.560Z,9.90
2019-02-20T10:12:13.773Z,10.30
2019-02-20T10:14:43.216Z,10.70
2019-02-20T10:17:12.336Z,11.10
2019-02-20T10:19:41.469Z,10.90
2019-02-20T10:22:10.713Z,10.20
2019-02-20T10:24:39.822Z,9.90
2019-02-20T10:27:09.023Z,9.70
2019-02-20T10:29:38.131Z,9.60
2019-02-20T10:32:07.243Z,9.70
2019-02-20T10:34:37.475Z,10.30
2019-02-20T10:37:06.981Z,10.40
2019-02-20T10:39:36.132Z,10.60
2019-02-20T10:42:05.381Z,10.90
2019-02-20T10:44:34.490Z,10.10
2019-02-20T10:47:04.662Z,10.00
2019-02-20T10:49:36.128Z,9.90
2019-02-20T10:52:05.288Z,9.90
2019-02-20T10:54:35.782Z,10.20
2019-02-20T10:57:04.994Z,10.60
2019-02-20T10:59:34.319Z,10.80
2019-02-20T11:02:03.743Z,10.60
2019-02-20T11:04:32.812Z,10.70
2019-02-20T11:07:01.932Z,10.30
2019-02-20T11:09:31.921Z,10.20
2019-02-20T11:12:01.075Z,10.40
2019-02-20T11:14:30.210Z,10.50
2019-02-20T11:16:59.635Z,10.40
2019-02-20T11:19:28.729Z,9.80
2019-02-20T11:21:57.964Z,9.50
2019-02-20T11:24:27.131Z,9.40
2019-02-20T11:26:56.233Z,9.60
2019-02-20T11:29:25.376Z,9.70
2019-02-20T11:31:56.576Z,9.70
2019-02-20T11:34:26.009Z,9.30
2019-02-20T11:36:55.142Z,9.20
2019-02-20T11:39:24.230Z,9.40
2019-02-20T11:41:55.657Z,9.50
2019-02-20T11:44:25.979Z,9.50
2019-02-20T11:46:56.826Z,9.40
2019-02-20T11:49:27.667Z,9.40
2019-02-20T11:51:56.745Z,9.40
2019-02-20T11:54:25.890Z,9.40
2019-02-20T11:56:55.328Z,9.50
2019-02-20T11:59:24.443Z,9.50
2019-02-20T12:01:55.832Z,9.70
2019-02-20T12:04:25.238Z,9.80
2019-02-20T12:06:54.630Z,9.80
2019-02-20T12:09:23.771Z,10.00
2019-02-20T12:11:54.077Z,9.70
2019-02-20T12:14:24.484Z,9.70
2019-02-20T12:16:54.168Z,9.80
2019-02-20T12:19:23.667Z,10.00
2019-02-20T12:21:52.820Z,10.10
2019-02-20T12:24:22.014Z,10.20
2019-02-20T12:26:55.810Z,10.40
2019-02-20T12:29:27.274Z,10.50
2019-02-20T12:31:58.128Z,10.50
2019-02-20T12:34:27.294Z,10.50
2019-02-20T12:36:56.878Z,10.60
2019-02-20T12:39:27.674Z,10.70
2019-02-20T12:41:57.003Z,10.90
2019-02-20T12:44:27.236Z,11.00
2019-02-20T12:46:59.864Z,11.00
2019-02-20T12:49:30.566Z,10.90
2019-02-20T12:52:00.142Z,10.90
2019-02-20T12:54:29.523Z,10.90
2019-02-20T12:57:00.409Z,11.00
2019-02-20T12:59:29.557Z,11.00
2019-02-20T13:01:58.687Z,10.90
2019-02-20T13:04:28.054Z,10.90
2019-02-20T13:06:59.568Z,10.90
2019-02-20T13:09:28.156Z,10.90
2019-02-20T13:11:57.321Z,10.90
2019-02-20T13:14:26.505Z,10.80
2019-02-20T13:16:55.791Z,10.90
2019-02-20T13:19:24.917Z,10.90
2019-02-20T13:21:56.700Z,10.90
2019-02-20T13:24:25.895Z,10.90
2019-02-20T13:26:55.027Z,10.90
2019-02-20T13:29:24.088Z,11.00
2019-02-20T13:31:53.302Z,11.00
2019-02-20T13:34:22.441Z,11.00
2019-02-20T13:36:51.561Z,11.00
2019-02-20T13:39:23.334Z,11.00
2019-02-20T13:41:53.221Z,11.00
2019-02-20T13:44:22.823Z,10.90
2019-02-20T13:46:52.038Z,10.90
2019-02-20T13:49:21.207Z,11.00
2019-02-20T13:51:50.421Z,11.00
2019-02-20T13:54:20.724Z,11.10
2019-02-20T13:56:51.380Z,11.30
2019-02-20T13:59:20.573Z,11.10
2019-02-20T14:01:49.825Z,11.30
2019-02-20T14:04:21.867Z,11.30
2019-02-20T14:06:51.072Z,11.40
2019-02-20T14:09:20.589Z,11.50
2019-02-20T14:11:51.905Z,11.50
2019-02-20T14:14:21.109Z,11.60
2019-02-20T14:16:50.421Z,11.80
2019-02-20T14:19:19.613Z,11.90
2019-02-20T14:21:49.162Z,12.00
2019-02-20T14:24:18.409Z,12.10
2019-02-20T14:26:47.938Z,12.10
2019-02-20T14:29:17.594Z,12.10
2019-02-20T14:31:53.307Z,12.10
2019-02-20T14:34:22.519Z,12.10
2019-02-20T14:36:58.603Z,12.10
2019-02-20T14:39:31.488Z,12.10
2019-02-20T14:42:11.762Z,12.10
2019-02-20T14:44:41.041Z,12.20
2019-02-20T14:47:10.230Z,12.30
2019-02-20T14:49:39.450Z,12.30
2019-02-20T14:52:08.688Z,12.30
2019-02-20T14:54:37.894Z,12.40
2019-02-20T14:57:07.111Z,12.40
2019-02-20T14:59:36.848Z,12.50
2019-02-20T15:02:06.454Z,12.50
2019-02-20T15:04:35.681Z,12.60
2019-02-20T15:07:05.075Z,12.60
2019-02-20T15:09:34.282Z,12.50
2019-02-20T15:12:03.588Z,12.60
2019-02-20T15:14:34.589Z,12.60
2019-02-20T15:17:04.044Z,12.10
2019-02-20T15:19:33.319Z,11.90
2019-02-20T15:22:02.653Z,11.90
2019-02-20T15:24:31.877Z,12.30
2019-02-20T15:27:01.103Z,12.40
2019-02-20T15:29:30.647Z,12.60
2019-02-20T15:31:59.880Z,12.50
2019-02-20T15:34:29.117Z,12.60
2019-02-20T15:36:58.326Z,12.60
2019-02-20T15:39:27.531Z,12.50
2019-02-20T15:41:56.731Z,12.40
2019-02-20T15:44:26.384Z,12.60
2019-02-20T15:46:55.557Z,12.40
2019-02-20T15:49:24.809Z,11.70
2019-02-20T15:51:54.066Z,11.60
2019-02-20T15:54:23.317Z,11.80
2019-02-20T15:56:52.538Z,12.00
2019-02-20T15:59:21.731Z,11.90
2019-02-20T16:01:51.093Z,12.00
2019-02-20T16:04:20.234Z,12.10
2019-02-20T16:06:49.524Z,12.00
2019-02-20T16:09:18.774Z,11.90
2019-02-20T16:11:53.084Z,11.70
2019-02-20T16:14:22.246Z,11.30
2019-02-20T16:16:51.497Z,11.10
2019-02-20T16:19:20.680Z,11.00
2019-02-20T16:21:49.939Z,10.90
2019-02-20T16:24:19.225Z,10.80
2019-02-20T16:26:48.550Z,10.80
2019-02-20T16:29:17.815Z,11.10
2019-02-20T16:31:47.440Z,11.20
2019-02-20T16:34:16.914Z,11.20
2019-02-20T16:36:46.303Z,11.00
2019-02-20T16:39:15.527Z,11.00
2019-02-20T16:41:44.856Z,10.90
2019-02-20T16:44:14.289Z,10.70
2019-02-20T16:46:43.986Z,10.60
2019-02-20T16:49:13.284Z,10.50
2019-02-20T16:51:42.746Z,10.40
2019-02-20T16:54:12.183Z,10.30
2019-02-20T16:56:41.473Z,9.70
2019-02-20T16:59:10.704Z,9.20
2019-02-20T17:01:39.996Z,8.90
2019-02-20T17:04:09.235Z,8.80
2019-02-20T17:06:38.478Z,8.60
2019-02-20T17:09:08.127Z,8.60
2019-02-20T17:11:37.362Z,8.70
2019-02-20T17:14:06.583Z,8.50
2019-02-20T17:16:35.806Z,8.40
2019-02-20T17:19:04.983Z,8.40
2019-02-20T17:21:34.284Z,8.40
2019-02-20T17:24:04.646Z,8.10
2019-02-20T17:26:33.970Z,8.10
2019-02-20T17:29:05.256Z,8.00
2019-02-20T17:31:34.888Z,7.90
2019-02-20T17:34:04.095Z,8.00
2019-02-20T17:36:33.249Z,7.80
2019-02-20T17:39:02.530Z,7.70
2019-02-20T17:41:31.762Z,7.70
2019-02-20T17:44:01.018Z,7.60
2019-02-20T17:46:30.310Z,7.50
2019-02-20T17:48:59.394Z,7.40
2019-02-20T17:51:29.756Z,7.30
2019-02-20T17:53:58.966Z,7.40
2019-02-20T17:56:30.383Z,7.30
2019-02-20T17:58:59.529Z,7.30
2019-02-20T18:01:29.320Z,7.20
2019-02-20T18:04:08.835Z,7.20
2019-02-20T18:06:38.097Z,7.10
2019-02-20T18:09:07.883Z,7.10
2019-02-20T18:11:37.023Z,7.00
2019-02-20T18:14:06.158Z,7.00
2019-02-20T18:16:35.308Z,7.00
2019-02-20T18:19:04.391Z,6.90
2019-02-20T18:21:33.559Z,6.80
2019-02-20T18:24:02.692Z,6.70
2019-02-20T18:26:31.803Z,6.70
2019-02-20T18:29:02.060Z,6.50
2019-02-20T18:31:31.619Z,6.40
2019-02-20T18:34:01.388Z,6.40
2019-02-20T18:36:32.833Z,6.60
2019-02-20T18:39:02.403Z,6.60
2019-02-20T18:41:31.565Z,6.50
2019-02-20T18:44:01.761Z,6.50
2019-02-20T18:46:30.930Z,6.40
2019-02-20T18:49:01.761Z,6.50
2019-02-20T18:51:30.901Z,6.40
2019-02-20T18:54:00.031Z,6.30
2019-02-20T18:56:31.161Z,6.20
2019-02-20T18:59:01.749Z,6.10
2019-02-20T19:01:30.845Z,6.00
2019-02-20T19:04:01.391Z,6.00
2019-02-20T19:06:30.556Z,6.00
2019-02-20T19:09:17.817Z,6.30
2019-02-20T19:12:13.772Z,6.30
2019-02-20T19:15:11.949Z,6.40
2019-02-20T19:18:00.579Z,6.40
2019-02-20T19:20:57.268Z,6.20
2019-02-20T19:24:19.857Z,6.10
2019-02-20T19:26:56.490Z,6.40
2019-02-20T19:30:21.247Z,6.50
2019-02-20T19:33:27.267Z,6.50
2019-02-20T19:36:29.263Z,6.50
2019-02-20T19:39:27.798Z,6.40
2019-02-20T19:42:32.225Z,6.30
2019-02-20T19:45:27.949Z,6.20
2019-02-20T19:48:29.479Z,6.10
2019-02-20T19:51:25.037Z,6.20
2019-02-20T19:54:36.941Z,6.20
2019-02-20T19:57:58.008Z,6.20
2019-02-20T20:01:02.915Z,6.20
2019-02-20T20:03:58.105Z,6.30
2019-02-20T20:06:53.051Z,6.20
2019-02-20T20:09:50.278Z,6.00
2019-02-20T20:13:03.269Z,5.90
2019-02-20T20:15:47.069Z,5.80
2019-02-20T20:18:44.894Z,5.80
2019-02-20T20:21:38.474Z,6.10
2019-02-20T20:24:43.794Z,6.20
2019-02-20T20:27:44.181Z,6.30
2019-02-20T20:30:39.960Z,6.30
2019-02-20T20:33:38.679Z,6.10
2019-02-20T20:36:55.235Z,6.10
2019-02-20T20:40:05.255Z,6.10
2019-02-20T20:43:16.018Z,6.00
2019-02-20T20:45:56.241Z,5.80
2019-02-20T20:48:57.725Z,5.70
2019-02-20T20:52:03.829Z,5.70
2019-02-20T20:55:00.734Z,5.70
2019-02-20T20:58:05.242Z,5.70
2019-02-20T21:01:21.460Z,5.80
2019-02-20T21:04:26.637Z,5.80
2019-02-20T21:07:26.639Z,5.60
2019-02-20T21:10:23.604Z,5.50
2019-02-20T21:13:23.852Z,5.40
2019-02-20T21:16:18.365Z,5.30
2019-02-20T21:19:23.248Z,5.40
2019-02-20T21:22:15.638Z,5.60
2019-02-20T21:25:08.991Z,5.50
2019-02-20T21:28:18.397Z,5.60
2019-02-20T21:31:04.562Z,5.70
2019-02-20T21:34:19.409Z,5.70
2019-02-20T21:37:19.567Z,5.80
2019-02-20T21:40:45.191Z,5.90
2019-02-20T21:43:51.620Z,5.90
2019-02-20T21:47:07.755Z,6.10
2019-02-20T21:50:01.409Z,6.10
2019-02-20T21:53:20.768Z,6.00
2019-02-20T21:56:14.741Z,6.00
2019-02-20T21:59:05.004Z,5.90
2019-02-20T22:02:39.886Z,6.00
2019-02-20T22:05:47.363Z,6.00
2019-02-20T22:08:56.592Z,6.00
2019-02-20T22:11:53.071Z,5.90
2019-02-20T22:14:58.092Z,5.90
2019-02-20T22:18:19.528Z,5.90
2019-02-20T22:21:22.322Z,5.80
2019-02-20T22:24:06.592Z,5.80
2019-02-20T22:27:23.954Z,5.80
2019-02-20T22:30:49.234Z,5.80
2019-02-20T22:33:41.632Z,5.80
2019-02-20T22:37:06.964Z,5.80
2019-02-20T22:40:01.317Z,5.70
2019-02-20T22:43:04.577Z,5.60
2019-02-20T22:46:02.422Z,5.60
2019-02-20T22:48:56.775Z,5.60
2019-02-20T22:51:35.741Z,5.60
2019-02-20T22:54:55.621Z,5.60
2019-02-20T22:58:12.768Z,5.60
2019-02-20T23:01:15.995Z,5.60
2019-02-20T23:04:41.413Z,5.60
2019-02-20T23:07:28.940Z,5.60
2019-02-20T23:10:24.304Z,5.60
2019-02-20T23:13:33.439Z,5.70
2019-02-20T23:16:02.576Z,5.70
2019-02-20T23:18:31.711Z,5.60
2019-02-20T23:21:00.880Z,5.60
2019-02-20T23:23:29.999Z,5.70
2019-02-20T23:25:59.092Z,5.70
2019-02-20T23:28:28.269Z,5.70
2019-02-20T23:30:57.410Z,5.60
2019-02-20T23:33:26.536Z,5.70
2019-02-20T23:35:55.665Z,5.80
2019-02-20T23:38:24.863Z,5.80
2019-02-20T23:40:54.036Z,5.80
2019-02-20T23:43:23.208Z,5.80
2019-02-20T23:45:52.714Z,5.80
2019-02-20T23:48:23.975Z,5.80
2019-02-20T23:50:53.034Z,5.80
2019-02-20T23:53:22.224Z,5.80
2019-02-20T23:55:51.339Z,5.80
2019-02-20T23:58:20.491Z,5.80
